sensor_id;sensor_type;location;lat;lon;timestamp;temperature;humidity
13707;DHT22;6925;47.816;13.072;2024-02-15T00:00:41;8.80;78.70
13707;DHT22;6925;47.816;13.072;2024-02-15T00:03:09;8.80;79.00
13707;DHT22;6925;47.816;13.072;2024-02-15T00:05:39;8.80;79.50
13707;DHT22;6925;47.816;13.072;2024-02-15T00:08:08;8.80;79.90
13707;DHT22;6925;47.816;13.072;2024-02-15T00:10:35;8.90;80.00
13707;DHT22;6925;47.816;13.072;2024-02-15T00:13:02;8.90;80.30
13707;DHT22;6925;47.816;13.072;2024-02-15T00:15:32;8.80;80.40
13707;DHT22;6925;47.816;13.072;2024-02-15T00:18:01;8.80;80.60
13707;DHT22;6925;47.816;13.072;2024-02-15T00:20:29;8.90;80.40
13707;DHT22;6925;47.816;13.072;2024-02-15T00:22:56;8.90;80.60
13707;DHT22;6925;47.816;13.072;2024-02-15T00:25:23;8.90;80.50
13707;DHT22;6925;47.816;13.072;2024-02-15T00:27:51;8.90;80.80
13707;DHT22;6925;47.816;13.072;2024-02-15T00:30:18;8.90;80.70
13707;DHT22;6925;47.816;13.072;2024-02-15T00:32:45;8.90;81.10
13707;DHT22;6925;47.816;13.072;2024-02-15T00:35:14;8.90;81.00
13707;DHT22;6925;47.816;13.072;2024-02-15T00:37:41;8.90;80.60
13707;DHT22;6925;47.816;13.072;2024-02-15T00:40:09;9.00;80.30
13707;DHT22;6925;47.816;13.072;2024-02-15T00:42:36;9.00;80.00
13707;DHT22;6925;47.816;13.072;2024-02-15T00:45:05;9.00;79.50
13707;DHT22;6925;47.816;13.072;2024-02-15T00:47:34;9.00;79.10
13707;DHT22;6925;47.816;13.072;2024-02-15T00:50:01;8.90;78.70
13707;DHT22;6925;47.816;13.072;2024-02-15T00:52:31;8.90;79.10
13707;DHT22;6925;47.816;13.072;2024-02-15T00:54:58;9.00;79.40
13707;DHT22;6925;47.816;13.072;2024-02-15T00:57:25;9.00;79.50
13707;DHT22;6925;47.816;13.072;2024-02-15T00:59:53;9.00;79.30
13707;DHT22;6925;47.816;13.072;2024-02-15T01:02:20;9.00;79.30
13707;DHT22;6925;47.816;13.072;2024-02-15T01:04:47;9.10;79.80
13707;DHT22;6925;47.816;13.072;2024-02-15T01:07:15;9.10;80.00
13707;DHT22;6925;47.816;13.072;2024-02-15T01:09:44;9.10;80.10
13707;DHT22;6925;47.816;13.072;2024-02-15T01:12:11;9.10;80.20
13707;DHT22;6925;47.816;13.072;2024-02-15T01:14:38;9.00;80.40
13707;DHT22;6925;47.816;13.072;2024-02-15T01:17:05;9.10;81.00
13707;DHT22;6925;47.816;13.072;2024-02-15T01:19:33;9.00;81.20
13707;DHT22;6925;47.816;13.072;2024-02-15T01:22:00;9.00;80.80
13707;DHT22;6925;47.816;13.072;2024-02-15T01:24:28;9.00;80.60
13707;DHT22;6925;47.816;13.072;2024-02-15T01:26:57;9.00;80.80
13707;DHT22;6925;47.816;13.072;2024-02-15T01:29:24;9.00;81.00
13707;DHT22;6925;47.816;13.072;2024-02-15T01:31:52;9.00;81.20
13707;DHT22;6925;47.816;13.072;2024-02-15T01:34:19;9.00;80.60
13707;DHT22;6925;47.816;13.072;2024-02-15T01:36:48;9.00;80.20
13707;DHT22;6925;47.816;13.072;2024-02-15T01:39:16;9.00;80.20
13707;DHT22;6925;47.816;13.072;2024-02-15T01:41:46;9.00;79.90
13707;DHT22;6925;47.816;13.072;2024-02-15T01:44:18;9.10;80.20
13707;DHT22;6925;47.816;13.072;2024-02-15T01:46:47;9.00;80.40
13707;DHT22;6925;47.816;13.072;2024-02-15T01:49:15;9.10;81.00
13707;DHT22;6925;47.816;13.072;2024-02-15T01:51:42;9.10;81.10
13707;DHT22;6925;47.816;13.072;2024-02-15T01:54:11;9.00;79.90
13707;DHT22;6925;47.816;13.072;2024-02-15T01:56:38;9.00;79.90
13707;DHT22;6925;47.816;13.072;2024-02-15T01:59:06;9.00;79.90
13707;DHT22;6925;47.816;13.072;2024-02-15T02:01:35;9.00;80.20
13707;DHT22;6925;47.816;13.072;2024-02-15T02:04:02;9.00;80.20
13707;DHT22;6925;47.816;13.072;2024-02-15T02:06:31;9.00;80.80
13707;DHT22;6925;47.816;13.072;2024-02-15T02:08:58;8.90;81.30
13707;DHT22;6925;47.816;13.072;2024-02-15T02:11:26;8.90;80.30
13707;DHT22;6925;47.816;13.072;2024-02-15T02:13:55;8.90;80.50
13707;DHT22;6925;47.816;13.072;2024-02-15T02:16:25;8.90;80.70
13707;DHT22;6925;47.816;13.072;2024-02-15T02:18:55;8.90;80.20
13707;DHT22;6925;47.816;13.072;2024-02-15T02:21:22;8.90;79.70
13707;DHT22;6925;47.816;13.072;2024-02-15T02:23:57;8.90;79.50
13707;DHT22;6925;47.816;13.072;2024-02-15T02:26:26;8.80;79.50
13707;DHT22;6925;47.816;13.072;2024-02-15T02:28:53;8.90;80.00
13707;DHT22;6925;47.816;13.072;2024-02-15T02:31:20;8.90;79.40
13707;DHT22;6925;47.816;13.072;2024-02-15T02:33:50;8.90;79.50
13707;DHT22;6925;47.816;13.072;2024-02-15T02:36:19;8.90;79.80
13707;DHT22;6925;47.816;13.072;2024-02-15T02:38:46;8.90;79.90
13707;DHT22;6925;47.816;13.072;2024-02-15T02:41:15;8.90;79.70
13707;DHT22;6925;47.816;13.072;2024-02-15T02:43:44;8.90;80.00
13707;DHT22;6925;47.816;13.072;2024-02-15T02:46:11;8.90;80.40
13707;DHT22;6925;47.816;13.072;2024-02-15T02:48:39;9.00;80.90
13707;DHT22;6925;47.816;13.072;2024-02-15T02:51:07;8.90;81.00
13707;DHT22;6925;47.816;13.072;2024-02-15T02:53:34;8.80;80.90
13707;DHT22;6925;47.816;13.072;2024-02-15T02:56:02;8.90;80.90
13707;DHT22;6925;47.816;13.072;2024-02-15T02:58:29;8.90;81.00
13707;DHT22;6925;47.816;13.072;2024-02-15T03:00:58;8.80;80.80
13707;DHT22;6925;47.816;13.072;2024-02-15T03:03:26;8.90;81.10
13707;DHT22;6925;47.816;13.072;2024-02-15T03:05:53;8.80;81.00
13707;DHT22;6925;47.816;13.072;2024-02-15T03:08:20;8.80;81.00
13707;DHT22;6925;47.816;13.072;2024-02-15T03:10:48;8.80;80.80
13707;DHT22;6925;47.816;13.072;2024-02-15T03:13:15;8.80;81.00
13707;DHT22;6925;47.816;13.072;2024-02-15T03:15:45;8.80;81.20
13707;DHT22;6925;47.816;13.072;2024-02-15T03:18:15;8.70;81.10
13707;DHT22;6925;47.816;13.072;2024-02-15T03:20:42;8.70;81.30
13707;DHT22;6925;47.816;13.072;2024-02-15T03:23:09;8.70;81.30
13707;DHT22;6925;47.816;13.072;2024-02-15T03:25:36;8.70;81.40
13707;DHT22;6925;47.816;13.072;2024-02-15T03:28:04;8.70;81.10
13707;DHT22;6925;47.816;13.072;2024-02-15T03:30:31;8.70;80.30
13707;DHT22;6925;47.816;13.072;2024-02-15T03:32:59;8.60;80.20
13707;DHT22;6925;47.816;13.072;2024-02-15T03:35:28;8.70;80.30
13707;DHT22;6925;47.816;13.072;2024-02-15T03:37:57;8.60;80.50
13707;DHT22;6925;47.816;13.072;2024-02-15T03:40:24;8.50;80.90
13707;DHT22;6925;47.816;13.072;2024-02-15T03:42:52;8.50;81.30
13707;DHT22;6925;47.816;13.072;2024-02-15T03:45:19;8.50;81.60
13707;DHT22;6925;47.816;13.072;2024-02-15T03:47:50;8.40;81.70
13707;DHT22;6925;47.816;13.072;2024-02-15T03:50:18;8.50;81.80
13707;DHT22;6925;47.816;13.072;2024-02-15T03:52:49;8.50;81.80
13707;DHT22;6925;47.816;13.072;2024-02-15T03:55:16;8.50;82.00
13707;DHT22;6925;47.816;13.072;2024-02-15T03:57:43;8.50;82.00
13707;DHT22;6925;47.816;13.072;2024-02-15T04:00:12;8.50;82.00
13707;DHT22;6925;47.816;13.072;2024-02-15T04:02:40;8.50;82.00
13707;DHT22;6925;47.816;13.072;2024-02-15T04:05:07;8.50;81.60
13707;DHT22;6925;47.816;13.072;2024-02-15T04:07:35;8.50;81.70
13707;DHT22;6925;47.816;13.072;2024-02-15T04:10:05;8.50;81.50
13707;DHT22;6925;47.816;13.072;2024-02-15T04:12:32;8.40;81.40
13707;DHT22;6925;47.816;13.072;2024-02-15T04:14:59;8.40;81.30
13707;DHT22;6925;47.816;13.072;2024-02-15T04:17:31;8.40;81.10
13707;DHT22;6925;47.816;13.072;2024-02-15T04:20:00;8.40;81.10
13707;DHT22;6925;47.816;13.072;2024-02-15T04:22:30;8.40;81.30
13707;DHT22;6925;47.816;13.072;2024-02-15T04:25:06;8.40;81.60
13707;DHT22;6925;47.816;13.072;2024-02-15T04:27:35;8.40;81.50
13707;DHT22;6925;47.816;13.072;2024-02-15T04:30:02;8.40;81.70
13707;DHT22;6925;47.816;13.072;2024-02-15T04:32:29;8.40;82.10
13707;DHT22;6925;47.816;13.072;2024-02-15T04:34:59;8.40;82.50
13707;DHT22;6925;47.816;13.072;2024-02-15T04:37:26;8.40;82.70
13707;DHT22;6925;47.816;13.072;2024-02-15T04:39:54;8.40;82.80
13707;DHT22;6925;47.816;13.072;2024-02-15T04:42:24;8.40;82.80
13707;DHT22;6925;47.816;13.072;2024-02-15T04:44:53;8.50;82.90
13707;DHT22;6925;47.816;13.072;2024-02-15T04:47:20;8.50;82.70
13707;DHT22;6925;47.816;13.072;2024-02-15T04:49:47;8.50;82.40
13707;DHT22;6925;47.816;13.072;2024-02-15T04:52:14;8.50;82.40
13707;DHT22;6925;47.816;13.072;2024-02-15T04:54:43;8.50;82.00
13707;DHT22;6925;47.816;13.072;2024-02-15T04:57:11;8.50;81.80
13707;DHT22;6925;47.816;13.072;2024-02-15T04:59:39;8.50;81.90
13707;DHT22;6925;47.816;13.072;2024-02-15T05:02:12;8.50;82.00
13707;DHT22;6925;47.816;13.072;2024-02-15T05:04:39;8.50;82.20
13707;DHT22;6925;47.816;13.072;2024-02-15T05:07:08;8.60;82.20
13707;DHT22;6925;47.816;13.072;2024-02-15T05:09:35;8.50;82.20
13707;DHT22;6925;47.816;13.072;2024-02-15T05:12:02;8.50;82.90
13707;DHT22;6925;47.816;13.072;2024-02-15T05:14:30;8.50;82.90
13707;DHT22;6925;47.816;13.072;2024-02-15T05:16:58;8.50;82.80
13707;DHT22;6925;47.816;13.072;2024-02-15T05:19:25;8.50;83.00
13707;DHT22;6925;47.816;13.072;2024-02-15T05:21:52;8.50;82.00
13707;DHT22;6925;47.816;13.072;2024-02-15T05:24:20;8.60;81.60
13707;DHT22;6925;47.816;13.072;2024-02-15T05:26:47;8.60;81.90
13707;DHT22;6925;47.816;13.072;2024-02-15T05:29:16;8.60;82.00
13707;DHT22;6925;47.816;13.072;2024-02-15T05:31:43;8.60;82.10
13707;DHT22;6925;47.816;13.072;2024-02-15T05:34:12;8.60;82.20
13707;DHT22;6925;47.816;13.072;2024-02-15T05:36:39;8.50;81.00
13707;DHT22;6925;47.816;13.072;2024-02-15T05:39:06;8.50;81.10
13707;DHT22;6925;47.816;13.072;2024-02-15T05:41:34;8.50;81.20
13707;DHT22;6925;47.816;13.072;2024-02-15T05:44:01;8.50;81.10
13707;DHT22;6925;47.816;13.072;2024-02-15T05:46:30;8.50;81.50
13707;DHT22;6925;47.816;13.072;2024-02-15T05:48:57;8.50;81.70
13707;DHT22;6925;47.816;13.072;2024-02-15T05:51:26;8.50;82.10
13707;DHT22;6925;47.816;13.072;2024-02-15T05:53:53;8.50;82.20
13707;DHT22;6925;47.816;13.072;2024-02-15T05:56:24;8.60;82.90
13707;DHT22;6925;47.816;13.072;2024-02-15T05:58:51;8.60;83.10
13707;DHT22;6925;47.816;13.072;2024-02-15T06:01:18;8.50;83.00
13707;DHT22;6925;47.816;13.072;2024-02-15T06:03:45;8.60;82.80
13707;DHT22;6925;47.816;13.072;2024-02-15T06:06:13;8.60;83.10
13707;DHT22;6925;47.816;13.072;2024-02-15T06:08:43;8.60;83.30
13707;DHT22;6925;47.816;13.072;2024-02-15T06:11:13;8.60;83.30
13707;DHT22;6925;47.816;13.072;2024-02-15T06:13:40;8.60;82.90
13707;DHT22;6925;47.816;13.072;2024-02-15T06:16:08;8.60;82.40
13707;DHT22;6925;47.816;13.072;2024-02-15T06:18:35;8.60;82.30
13707;DHT22;6925;47.816;13.072;2024-02-15T06:21:03;8.60;81.70
13707;DHT22;6925;47.816;13.072;2024-02-15T06:23:32;8.60;81.40
13707;DHT22;6925;47.816;13.072;2024-02-15T06:26:01;8.60;81.50
13707;DHT22;6925;47.816;13.072;2024-02-15T06:28:29;8.60;81.70
13707;DHT22;6925;47.816;13.072;2024-02-15T06:31:14;8.60;81.60
13707;DHT22;6925;47.816;13.072;2024-02-15T06:33:58;8.60;81.30
13707;DHT22;6925;47.816;13.072;2024-02-15T06:36:45;8.60;81.20
13707;DHT22;6925;47.816;13.072;2024-02-15T06:39:32;8.60;81.20
13707;DHT22;6925;47.816;13.072;2024-02-15T06:42:08;8.50;80.90
13707;DHT22;6925;47.816;13.072;2024-02-15T06:44:37;8.50;81.40
13707;DHT22;6925;47.816;13.072;2024-02-15T06:47:06;8.60;81.80
13707;DHT22;6925;47.816;13.072;2024-02-15T06:49:35;8.60;82.10
13707;DHT22;6925;47.816;13.072;2024-02-15T06:52:02;8.60;82.60
13707;DHT22;6925;47.816;13.072;2024-02-15T06:54:29;8.60;82.90
13707;DHT22;6925;47.816;13.072;2024-02-15T06:56:57;8.60;82.70
13707;DHT22;6925;47.816;13.072;2024-02-15T06:59:25;8.60;82.70
13707;DHT22;6925;47.816;13.072;2024-02-15T07:01:52;8.70;82.40
13707;DHT22;6925;47.816;13.072;2024-02-15T07:04:20;8.70;82.50
13707;DHT22;6925;47.816;13.072;2024-02-15T07:06:47;8.70;81.60
13707;DHT22;6925;47.816;13.072;2024-02-15T07:09:15;8.70;82.00
13707;DHT22;6925;47.816;13.072;2024-02-15T07:11:43;8.70;82.20
13707;DHT22;6925;47.816;13.072;2024-02-15T07:14:12;8.70;82.60
13707;DHT22;6925;47.816;13.072;2024-02-15T07:16:44;8.80;82.70
13707;DHT22;6925;47.816;13.072;2024-02-15T07:19:11;8.90;83.00
13707;DHT22;6925;47.816;13.072;2024-02-15T07:21:38;8.80;81.70
13707;DHT22;6925;47.816;13.072;2024-02-15T07:24:05;8.80;81.20
13707;DHT22;6925;47.816;13.072;2024-02-15T07:26:32;8.80;81.00
13707;DHT22;6925;47.816;13.072;2024-02-15T07:29:01;8.80;81.40
13707;DHT22;6925;47.816;13.072;2024-02-15T07:31:31;8.80;81.20
13707;DHT22;6925;47.816;13.072;2024-02-15T07:34:01;8.80;81.70
13707;DHT22;6925;47.816;13.072;2024-02-15T07:36:29;8.90;82.20
13707;DHT22;6925;47.816;13.072;2024-02-15T07:38:56;9.00;82.10
13707;DHT22;6925;47.816;13.072;2024-02-15T07:41:26;9.00;81.60
13707;DHT22;6925;47.816;13.072;2024-02-15T07:43:53;9.00;80.10
13707;DHT22;6925;47.816;13.072;2024-02-15T07:46:21;9.00;80.00
13707;DHT22;6925;47.816;13.072;2024-02-15T07:48:50;8.90;80.10
13707;DHT22;6925;47.816;13.072;2024-02-15T07:51:21;8.90;80.30
13707;DHT22;6925;47.816;13.072;2024-02-15T07:53:49;9.00;81.00
13707;DHT22;6925;47.816;13.072;2024-02-15T07:56:17;9.10;80.70
13707;DHT22;6925;47.816;13.072;2024-02-15T07:58:45;9.10;80.50
13707;DHT22;6925;47.816;13.072;2024-02-15T08:01:13;9.10;79.70
13707;DHT22;6925;47.816;13.072;2024-02-15T08:03:40;9.20;80.10
13707;DHT22;6925;47.816;13.072;2024-02-15T08:06:11;9.20;79.20
13707;DHT22;6925;47.816;13.072;2024-02-15T08:08:40;9.30;79.80
13707;DHT22;6925;47.816;13.072;2024-02-15T08:11:08;9.30;78.70
13707;DHT22;6925;47.816;13.072;2024-02-15T08:13:41;9.20;78.80
13707;DHT22;6925;47.816;13.072;2024-02-15T08:16:09;9.30;79.10
13707;DHT22;6925;47.816;13.072;2024-02-15T08:18:38;9.30;79.70
13707;DHT22;6925;47.816;13.072;2024-02-15T08:21:09;9.40;79.80
13707;DHT22;6925;47.816;13.072;2024-02-15T08:23:37;9.40;78.40
13707;DHT22;6925;47.816;13.072;2024-02-15T08:26:06;9.40;78.30
13707;DHT22;6925;47.816;13.072;2024-02-15T08:28:33;9.50;79.20
13707;DHT22;6925;47.816;13.072;2024-02-15T08:31:00;9.60;78.80
13707;DHT22;6925;47.816;13.072;2024-02-15T08:33:27;9.60;78.60
13707;DHT22;6925;47.816;13.072;2024-02-15T08:35:54;9.60;78.10
13707;DHT22;6925;47.816;13.072;2024-02-15T08:38:21;9.70;78.00
13707;DHT22;6925;47.816;13.072;2024-02-15T08:40:49;9.70;78.00
13707;DHT22;6925;47.816;13.072;2024-02-15T08:43:17;9.80;78.70
13707;DHT22;6925;47.816;13.072;2024-02-15T08:45:44;9.90;80.00
13707;DHT22;6925;47.816;13.072;2024-02-15T08:48:12;10.00;78.50
13707;DHT22;6925;47.816;13.072;2024-02-15T08:50:39;10.10;79.10
13707;DHT22;6925;47.816;13.072;2024-02-15T08:53:07;10.20;78.70
13707;DHT22;6925;47.816;13.072;2024-02-15T08:55:34;10.40;79.90
13707;DHT22;6925;47.816;13.072;2024-02-15T08:58:02;10.60;79.50
13707;DHT22;6925;47.816;13.072;2024-02-15T09:00:31;10.80;79.80
13707;DHT22;6925;47.816;13.072;2024-02-15T09:02:58;10.90;78.80
13707;DHT22;6925;47.816;13.072;2024-02-15T09:05:25;11.10;79.90
13707;DHT22;6925;47.816;13.072;2024-02-15T09:07:53;11.40;80.30
13707;DHT22;6925;47.816;13.072;2024-02-15T09:10:20;11.70;79.50
13707;DHT22;6925;47.816;13.072;2024-02-15T09:12:49;12.00;80.50
13707;DHT22;6925;47.816;13.072;2024-02-15T09:15:16;12.10;74.60
13707;DHT22;6925;47.816;13.072;2024-02-15T09:17:45;12.00;73.20
13707;DHT22;6925;47.816;13.072;2024-02-15T09:20:13;12.00;72.50
13707;DHT22;6925;47.816;13.072;2024-02-15T09:22:48;11.90;73.80
13707;DHT22;6925;47.816;13.072;2024-02-15T09:25:15;12.00;73.30
13707;DHT22;6925;47.816;13.072;2024-02-15T09:27:43;12.10;72.90
13707;DHT22;6925;47.816;13.072;2024-02-15T09:30:12;12.20;73.50
13707;DHT22;6925;47.816;13.072;2024-02-15T09:32:39;12.40;73.60
13707;DHT22;6925;47.816;13.072;2024-02-15T09:35:09;12.60;74.70
13707;DHT22;6925;47.816;13.072;2024-02-15T09:37:38;12.80;72.70
13707;DHT22;6925;47.816;13.072;2024-02-15T09:40:08;13.00;71.60
13707;DHT22;6925;47.816;13.072;2024-02-15T09:42:36;13.10;70.80
13707;DHT22;6925;47.816;13.072;2024-02-15T09:45:05;13.30;72.70
13707;DHT22;6925;47.816;13.072;2024-02-15T09:47:35;13.40;70.10
13707;DHT22;6925;47.816;13.072;2024-02-15T09:50:02;13.50;70.30
13707;DHT22;6925;47.816;13.072;2024-02-15T09:52:34;13.70;69.10
13707;DHT22;6925;47.816;13.072;2024-02-15T09:55:03;13.80;69.20
13707;DHT22;6925;47.816;13.072;2024-02-15T09:57:30;14.00;70.70
13707;DHT22;6925;47.816;13.072;2024-02-15T09:59:59;14.20;68.90
13707;DHT22;6925;47.816;13.072;2024-02-15T10:02:26;14.30;67.30
13707;DHT22;6925;47.816;13.072;2024-02-15T10:04:53;14.40;67.80
13707;DHT22;6925;47.816;13.072;2024-02-15T10:07:22;14.60;68.50
13707;DHT22;6925;47.816;13.072;2024-02-15T10:09:50;14.80;68.70
13707;DHT22;6925;47.816;13.072;2024-02-15T10:12:17;15.10;67.00
13707;DHT22;6925;47.816;13.072;2024-02-15T10:14:48;15.20;65.40
13707;DHT22;6925;47.816;13.072;2024-02-15T10:17:19;15.30;65.70
13707;DHT22;6925;47.816;13.072;2024-02-15T10:20:03;15.50;66.50
13707;DHT22;6925;47.816;13.072;2024-02-15T10:22:30;15.60;62.20
13707;DHT22;6925;47.816;13.072;2024-02-15T10:25:12;15.60;62.90
13707;DHT22;6925;47.816;13.072;2024-02-15T10:27:39;15.60;63.00
13707;DHT22;6925;47.816;13.072;2024-02-15T10:30:17;15.80;61.10
13707;DHT22;6925;47.816;13.072;2024-02-15T10:32:44;16.00;63.70
13707;DHT22;6925;47.816;13.072;2024-02-15T10:35:19;16.10;61.60
13707;DHT22;6925;47.816;13.072;2024-02-15T10:37:48;16.40;63.40
13707;DHT22;6925;47.816;13.072;2024-02-15T10:40:20;16.50;59.50
13707;DHT22;6925;47.816;13.072;2024-02-15T10:42:47;16.70;58.60
13707;DHT22;6925;47.816;13.072;2024-02-15T10:45:16;16.80;61.20
13707;DHT22;6925;47.816;13.072;2024-02-15T10:47:45;16.90;59.70
13707;DHT22;6925;47.816;13.072;2024-02-15T10:50:14;17.20;62.70
13707;DHT22;6925;47.816;13.072;2024-02-15T10:52:48;17.50;60.80
13707;DHT22;6925;47.816;13.072;2024-02-15T10:55:26;17.70;59.40
13707;DHT22;6925;47.816;13.072;2024-02-15T10:58:18;17.90;57.30
13707;DHT22;6925;47.816;13.072;2024-02-15T11:00:46;18.10;56.20
13707;DHT22;6925;47.816;13.072;2024-02-15T11:03:19;18.10;55.30
13707;DHT22;6925;47.816;13.072;2024-02-15T11:05:50;18.20;55.00
13707;DHT22;6925;47.816;13.072;2024-02-15T11:08:18;18.30;55.00
13707;DHT22;6925;47.816;13.072;2024-02-15T11:10:47;18.40;54.50
13707;DHT22;6925;47.816;13.072;2024-02-15T11:13:15;18.50;54.50
13707;DHT22;6925;47.816;13.072;2024-02-15T11:15:46;18.60;54.20
13707;DHT22;6925;47.816;13.072;2024-02-15T11:18:41;18.70;53.80
13707;DHT22;6925;47.816;13.072;2024-02-15T11:21:10;18.80;53.60
13707;DHT22;6925;47.816;13.072;2024-02-15T11:23:37;18.80;53.20
13707;DHT22;6925;47.816;13.072;2024-02-15T11:26:14;18.90;53.20
13707;DHT22;6925;47.816;13.072;2024-02-15T11:28:57;19.00;52.30
13707;DHT22;6925;47.816;13.072;2024-02-15T11:31:55;19.10;52.90
13707;DHT22;6925;47.816;13.072;2024-02-15T11:34:44;19.30;51.80
13707;DHT22;6925;47.816;13.072;2024-02-15T11:37:51;19.50;52.00
13707;DHT22;6925;47.816;13.072;2024-02-15T11:40:20;19.60;52.40
13707;DHT22;6925;47.816;13.072;2024-02-15T11:42:51;19.70;52.20
13707;DHT22;6925;47.816;13.072;2024-02-15T11:45:19;19.80;51.80
13707;DHT22;6925;47.816;13.072;2024-02-15T11:47:50;20.00;52.30
13707;DHT22;6925;47.816;13.072;2024-02-15T11:50:18;20.20;51.80
13707;DHT22;6925;47.816;13.072;2024-02-15T11:52:47;20.30;52.60
13707;DHT22;6925;47.816;13.072;2024-02-15T11:55:18;20.40;51.80
13707;DHT22;6925;47.816;13.072;2024-02-15T11:57:56;20.50;51.10
13707;DHT22;6925;47.816;13.072;2024-02-15T12:00:29;20.70;51.00
13707;DHT22;6925;47.816;13.072;2024-02-15T12:03:14;20.80;52.20
13707;DHT22;6925;47.816;13.072;2024-02-15T12:05:59;21.00;51.60
13707;DHT22;6925;47.816;13.072;2024-02-15T12:08:45;21.20;50.70
13707;DHT22;6925;47.816;13.072;2024-02-15T12:11:29;21.40;49.60
13707;DHT22;6925;47.816;13.072;2024-02-15T12:14:16;21.50;49.30
13707;DHT22;6925;47.816;13.072;2024-02-15T12:17:01;21.50;49.20
13707;DHT22;6925;47.816;13.072;2024-02-15T12:19:48;21.50;49.20
13707;DHT22;6925;47.816;13.072;2024-02-15T12:22:17;21.40;48.90
13707;DHT22;6925;47.816;13.072;2024-02-15T12:24:53;21.40;49.30
13707;DHT22;6925;47.816;13.072;2024-02-15T12:27:20;21.40;49.10
13707;DHT22;6925;47.816;13.072;2024-02-15T12:29:54;21.40;50.00
13707;DHT22;6925;47.816;13.072;2024-02-15T12:32:23;21.30;49.30
13707;DHT22;6925;47.816;13.072;2024-02-15T12:34:50;21.20;49.30
13707;DHT22;6925;47.816;13.072;2024-02-15T12:37:19;21.20;48.90
13707;DHT22;6925;47.816;13.072;2024-02-15T12:39:48;21.10;49.90
13707;DHT22;6925;47.816;13.072;2024-02-15T12:42:16;21.20;50.70
13707;DHT22;6925;47.816;13.072;2024-02-15T12:44:45;21.20;49.90
13707;DHT22;6925;47.816;13.072;2024-02-15T12:47:21;21.30;50.90
13707;DHT22;6925;47.816;13.072;2024-02-15T12:49:50;21.40;49.90
13707;DHT22;6925;47.816;13.072;2024-02-15T12:52:37;21.40;49.60
13707;DHT22;6925;47.816;13.072;2024-02-15T12:55:12;21.40;49.10
13707;DHT22;6925;47.816;13.072;2024-02-15T12:57:39;21.50;48.90
13707;DHT22;6925;47.816;13.072;2024-02-15T13:00:12;21.60;48.90
13707;DHT22;6925;47.816;13.072;2024-02-15T13:02:45;21.60;49.10
13707;DHT22;6925;47.816;13.072;2024-02-15T13:05:14;21.70;48.30
13707;DHT22;6925;47.816;13.072;2024-02-15T13:07:44;21.60;47.70
13707;DHT22;6925;47.816;13.072;2024-02-15T13:10:11;21.60;48.70
13707;DHT22;6925;47.816;13.072;2024-02-15T13:12:41;21.60;48.40
13707;DHT22;6925;47.816;13.072;2024-02-15T13:15:10;21.70;49.20
13707;DHT22;6925;47.816;13.072;2024-02-15T13:17:40;21.80;48.50
13707;DHT22;6925;47.816;13.072;2024-02-15T13:20:11;22.10;50.20
13707;DHT22;6925;47.816;13.072;2024-02-15T13:22:40;22.20;47.20
13707;DHT22;6925;47.816;13.072;2024-02-15T13:25:09;22.30;48.90
13707;DHT22;6925;47.816;13.072;2024-02-15T13:27:36;22.40;49.60
13707;DHT22;6925;47.816;13.072;2024-02-15T13:30:05;22.60;46.90
13707;DHT22;6925;47.816;13.072;2024-02-15T13:32:35;22.60;48.10
13707;DHT22;6925;47.816;13.072;2024-02-15T13:35:05;22.80;48.40
13707;DHT22;6925;47.816;13.072;2024-02-15T13:37:41;23.00;47.60
13707;DHT22;6925;47.816;13.072;2024-02-15T13:40:10;23.00;44.90
13707;DHT22;6925;47.816;13.072;2024-02-15T13:42:41;22.80;45.40
13707;DHT22;6925;47.816;13.072;2024-02-15T13:45:13;22.70;46.90
13707;DHT22;6925;47.816;13.072;2024-02-15T13:47:39;22.80;46.70
13707;DHT22;6925;47.816;13.072;2024-02-15T13:50:07;22.90;46.00
13707;DHT22;6925;47.816;13.072;2024-02-15T13:52:35;23.10;46.50
13707;DHT22;6925;47.816;13.072;2024-02-15T13:55:04;23.30;45.20
13707;DHT22;6925;47.816;13.072;2024-02-15T13:57:31;23.30;45.00
13707;DHT22;6925;47.816;13.072;2024-02-15T13:59:58;23.30;45.00
13707;DHT22;6925;47.816;13.072;2024-02-15T14:02:26;23.30;45.30
13707;DHT22;6925;47.816;13.072;2024-02-15T14:04:54;23.60;46.30
13707;DHT22;6925;47.816;13.072;2024-02-15T14:07:21;23.90;46.10
13707;DHT22;6925;47.816;13.072;2024-02-15T14:09:48;24.00;42.60
13707;DHT22;6925;47.816;13.072;2024-02-15T14:12:17;24.00;43.90
13707;DHT22;6925;47.816;13.072;2024-02-15T14:14:44;24.30;45.30
13707;DHT22;6925;47.816;13.072;2024-02-15T14:17:11;24.50;45.40
13707;DHT22;6925;47.816;13.072;2024-02-15T14:19:40;24.90;44.80
13707;DHT22;6925;47.816;13.072;2024-02-15T14:22:09;25.10;44.40
13707;DHT22;6925;47.816;13.072;2024-02-15T14:24:41;25.30;44.10
13707;DHT22;6925;47.816;13.072;2024-02-15T14:27:09;25.40;43.70
13707;DHT22;6925;47.816;13.072;2024-02-15T14:29:38;25.50;43.10
13707;DHT22;6925;47.816;13.072;2024-02-15T14:32:25;25.50;42.70
13707;DHT22;6925;47.816;13.072;2024-02-15T14:35:09;25.50;42.40
13707;DHT22;6925;47.816;13.072;2024-02-15T14:37:37;25.50;42.10
13707;DHT22;6925;47.816;13.072;2024-02-15T14:40:07;25.20;40.90
13707;DHT22;6925;47.816;13.072;2024-02-15T14:42:35;24.90;41.70
13707;DHT22;6925;47.816;13.072;2024-02-15T14:45:07;24.70;41.70
13707;DHT22;6925;47.816;13.072;2024-02-15T14:47:34;24.40;41.50
13707;DHT22;6925;47.816;13.072;2024-02-15T14:50:01;24.10;42.20
13707;DHT22;6925;47.816;13.072;2024-02-15T14:52:29;23.80;41.70
13707;DHT22;6925;47.816;13.072;2024-02-15T14:54:57;23.60;42.40
13707;DHT22;6925;47.816;13.072;2024-02-15T14:57:24;23.30;42.70
13707;DHT22;6925;47.816;13.072;2024-02-15T14:59:51;23.20;43.30
13707;DHT22;6925;47.816;13.072;2024-02-15T15:02:19;23.00;44.00
13707;DHT22;6925;47.816;13.072;2024-02-15T15:04:46;23.00;43.20
13707;DHT22;6925;47.816;13.072;2024-02-15T15:07:45;22.90;43.10
13707;DHT22;6925;47.816;13.072;2024-02-15T15:10:29;22.60;43.30
13707;DHT22;6925;47.816;13.072;2024-02-15T15:13:13;22.30;43.90
13707;DHT22;6925;47.816;13.072;2024-02-15T15:15:41;22.10;44.20
13707;DHT22;6925;47.816;13.072;2024-02-15T15:18:10;21.90;45.00
13707;DHT22;6925;47.816;13.072;2024-02-15T15:20:37;21.90;44.60
13707;DHT22;6925;47.816;13.072;2024-02-15T15:23:05;21.80;45.00
13707;DHT22;6925;47.816;13.072;2024-02-15T15:25:32;21.80;44.50
13707;DHT22;6925;47.816;13.072;2024-02-15T15:27:59;21.60;44.50
13707;DHT22;6925;47.816;13.072;2024-02-15T15:30:27;21.40;44.40
13707;DHT22;6925;47.816;13.072;2024-02-15T15:32:54;21.20;44.30
13707;DHT22;6925;47.816;13.072;2024-02-15T15:35:22;21.00;44.50
13707;DHT22;6925;47.816;13.072;2024-02-15T15:37:51;20.80;44.50
13707;DHT22;6925;47.816;13.072;2024-02-15T15:40:18;20.50;45.00
13707;DHT22;6925;47.816;13.072;2024-02-15T15:42:45;20.30;45.20
13707;DHT22;6925;47.816;13.072;2024-02-15T15:45:13;20.20;45.80
13707;DHT22;6925;47.816;13.072;2024-02-15T15:47:41;20.00;46.20
13707;DHT22;6925;47.816;13.072;2024-02-15T15:50:09;19.90;46.40
13707;DHT22;6925;47.816;13.072;2024-02-15T15:52:38;19.90;46.60
13707;DHT22;6925;47.816;13.072;2024-02-15T15:55:07;19.80;46.70